Time;durP1;ratioP1;P1;durP2;ratioP2;P2;SDS_P1;SDS_P2;PMS_P1;PMS_P2;Temp;Humidity;BMP_temperature;BMP_pressure;BME280_temperature;BME280_humidity;BME280_pressure;Samples;Min_cycle;Max_cycle;Signal;HPM_P1;HPM_P2
2023/03/19 00:01:58;;;;;;;22.80;20.40;;;;;;;;;;5067803;28;20033;-78
2023/03/19 00:04:24;;;;;;;22.63;20.15;;;;;;;;;;5073523;28;20046;-78
2023/03/19 00:06:51;;;;;;;24.08;21.48;;;;;;;;;;5071627;28;20533;-78
2023/03/19 00:09:17;;;;;;;24.17;21.58;;;;;;;;;;5073527;28;20071;-78
2023/03/19 00:11:44;;;;;;;23.30;21.00;;;;;;;;;;5072539;28;20049;-78
2023/03/19 00:14:10;;;;;;;23.17;20.70;;;;;;;;;;5073411;28;20048;-78
2023/03/19 00:16:36;;;;;;;24.70;21.52;;;;;;;;;;5073794;28;20390;-78
2023/03/19 00:19:02;;;;;;;24.08;21.55;;;;;;;;;;5073769;28;20055;-78
2023/03/19 00:21:29;;;;;;;24.27;21.67;;;;;;;;;;5074035;28;20066;-78
2023/03/19 00:23:59;;;;;;;25.65;23.15;;;;;;;;;;5072035;28;20045;-78
2023/03/19 00:26:26;;;;;;;25.30;22.60;;;;;;;;;;5072893;28;20384;-78
2023/03/19 00:28:52;;;;;;;25.58;22.98;;;;;;;;;;5072099;28;20049;-78
2023/03/19 00:31:18;;;;;;;25.45;22.77;;;;;;;;;;5068253;28;20045;-78
2023/03/19 00:33:45;;;;;;;25.13;22.63;;;;;;;;;;5053428;28;20049;-78
2023/03/19 00:36:11;;;;;;;26.60;23.90;;;;;;;;;;5053627;28;20048;-78
2023/03/19 00:38:37;;;;;;;26.75;24.05;;;;;;;;;;5053494;28;20045;-77
2023/03/19 00:41:04;;;;;;;26.58;23.15;;;;;;;;;;5070961;28;20037;-78
2023/03/19 00:43:31;;;;;;;26.23;23.63;;;;;;;;;;5072725;28;20099;-78
2023/03/19 00:45:57;;;;;;;27.67;24.38;;;;;;;;;;5073527;28;20090;-78
2023/03/19 00:48:23;;;;;;;27.58;24.85;;;;;;;;;;5073423;28;20071;-78
2023/03/19 00:50:50;;;;;;;26.92;24.02;;;;;;;;;;5073995;28;20394;-78
2023/03/19 00:53:16;;;;;;;26.60;23.80;;;;;;;;;;5073338;28;20044;-78
2023/03/19 00:55:43;;;;;;;27.20;24.50;;;;;;;;;;5073040;28;20128;-78
2023/03/19 00:58:09;;;;;;;28.90;24.92;;;;;;;;;;5072189;28;20047;-78
2023/03/19 01:00:36;;;;;;;28.02;25.23;;;;;;;;;;5072548;28;20447;-78
2023/03/19 01:03:02;;;;;;;27.00;24.20;;;;;;;;;;5054416;28;20124;-78
2023/03/19 01:05:29;;;;;;;28.65;25.73;;;;;;;;;;5053862;28;20052;-78
2023/03/19 01:07:55;;;;;;;28.58;25.70;;;;;;;;;;5056314;28;20106;-78
2023/03/19 01:10:22;;;;;;;29.27;26.15;;;;;;;;;;5055986;28;20053;-78
2023/03/19 01:12:48;;;;;;;28.98;26.15;;;;;;;;;;5058263;28;20126;-78
2023/03/19 01:15:14;;;;;;;30.38;27.20;;;;;;;;;;5075044;28;20036;-78
2023/03/19 01:17:41;;;;;;;29.20;26.08;;;;;;;;;;5077412;28;20040;-78
2023/03/19 01:20:11;;;;;;;27.95;25.05;;;;;;;;;;5077610;28;20463;-78
2023/03/19 01:22:39;;;;;;;29.33;26.33;;;;;;;;;;5065390;28;20045;-78
2023/03/19 01:25:06;;;;;;;29.17;26.25;;;;;;;;;;5068626;28;20052;-78
2023/03/19 01:27:32;;;;;;;28.40;25.40;;;;;;;;;;5076945;28;20044;-78
2023/03/19 01:29:58;;;;;;;29.65;26.63;;;;;;;;;;5074715;28;20041;-77
2023/03/19 01:32:24;;;;;;;28.67;25.83;;;;;;;;;;5057010;28;20055;-78
2023/03/19 01:34:50;;;;;;;28.52;24.88;;;;;;;;;;5072786;28;20097;-78
2023/03/19 01:37:16;;;;;;;28.33;25.17;;;;;;;;;;5064696;28;20103;-77
2023/03/19 01:39:44;;;;;;;29.42;26.52;;;;;;;;;;5056647;28;20049;-78
2023/03/19 01:42:10;;;;;;;29.77;26.63;;;;;;;;;;5056799;28;20053;-78
2023/03/19 01:44:37;;;;;;;30.05;26.95;;;;;;;;;;5057081;28;20124;-78
2023/03/19 01:47:14;;;;;;;29.63;26.55;;;;;;;;;;5059295;28;20087;-78
2023/03/19 01:49:41;;;;;;;29.20;24.73;;;;;;;;;;5056655;28;20140;-78
2023/03/19 01:52:08;;;;;;;29.75;25.88;;;;;;;;;;5060013;28;20036;-78
2023/03/19 01:54:35;;;;;;;31.60;26.33;;;;;;;;;;5056524;28;20049;-78
2023/03/19 01:57:12;;;;;;;29.75;26.35;;;;;;;;;;5056724;28;20041;-78
2023/03/19 01:59:41;;;;;;;27.83;24.95;;;;;;;;;;5056279;28;20498;-78
2023/03/19 02:02:10;;;;;;;27.27;24.48;;;;;;;;;;5055294;28;20544;-78
2023/03/19 02:04:38;;;;;;;30.30;27.20;;;;;;;;;;5061524;28;20053;-78
2023/03/19 02:07:05;;;;;;;29.60;26.60;;;;;;;;;;5076029;28;20052;-78
2023/03/19 02:09:31;;;;;;;28.67;25.77;;;;;;;;;;5060039;28;20045;-78
2023/03/19 02:11:57;;;;;;;29.55;26.35;;;;;;;;;;5055631;28;20041;-78
2023/03/19 02:14:23;;;;;;;29.58;26.58;;;;;;;;;;5055484;28;20095;-78
2023/03/19 02:16:50;;;;;;;30.50;27.33;;;;;;;;;;5054020;28;20045;-78
2023/03/19 02:19:18;;;;;;;29.35;24.73;;;;;;;;;;5054619;28;20722;-78
2023/03/19 02:21:44;;;;;;;28.83;24.48;;;;;;;;;;5062636;28;20051;-78
2023/03/19 02:24:22;;;;;;;28.40;25.33;;;;;;;;;;5074177;28;20044;-78
2023/03/19 02:26:50;;;;;;;26.92;24.13;;;;;;;;;;5075209;28;20047;-78
2023/03/19 02:29:16;;;;;;;27.60;24.70;;;;;;;;;;5074959;28;20094;-78
2023/03/19 02:31:42;;;;;;;27.27;24.48;;;;;;;;;;5074627;28;20044;-78
2023/03/19 02:34:20;;;;;;;29.10;25.15;;;;;;;;;;5065445;28;20111;-77
2023/03/19 02:37:01;;;;;;;28.90;25.90;;;;;;;;;;5054630;28;20582;-77
2023/03/19 02:39:33;;;;;;;28.45;25.27;;;;;;;;;;5068014;28;20392;-77
2023/03/19 02:42:00;;;;;;;29.35;26.20;;;;;;;;;;5074572;28;20052;-78
2023/03/19 02:44:26;;;;;;;28.88;25.92;;;;;;;;;;5073172;28;20056;-75
2023/03/19 02:46:52;;;;;;;28.15;25.15;;;;;;;;;;5074509;28;20045;-75
2023/03/19 02:49:19;;;;;;;27.77;24.77;;;;;;;;;;5072269;28;20048;-75
2023/03/19 02:51:45;;;;;;;28.45;24.55;;;;;;;;;;5067611;28;20052;-76
2023/03/19 02:54:11;;;;;;;28.60;25.38;;;;;;;;;;5054761;28;20053;-77
2023/03/19 02:56:37;;;;;;;26.55;23.17;;;;;;;;;;5068820;28;20047;-77
2023/03/19 02:59:03;;;;;;;26.23;23.23;;;;;;;;;;5074541;28;20403;-77
2023/03/19 03:01:29;;;;;;;24.52;21.92;;;;;;;;;;5074108;28;20449;-77
2023/03/19 03:03:55;;;;;;;23.88;21.25;;;;;;;;;;5073378;28;20037;-77
2023/03/19 03:06:21;;;;;;;21.70;19.35;;;;;;;;;;5074083;28;20086;-77
2023/03/19 03:08:47;;;;;;;22.88;18.63;;;;;;;;;;5073663;28;20052;-77
2023/03/19 03:11:13;;;;;;;20.73;17.40;;;;;;;;;;5074972;28;20124;-77
2023/03/19 03:13:40;;;;;;;19.40;16.33;;;;;;;;;;5058074;28;20049;-77
2023/03/19 03:16:06;;;;;;;18.95;15.70;;;;;;;;;;5053930;28;20041;-77
2023/03/19 03:18:32;;;;;;;18.85;15.52;;;;;;;;;;5053857;28;20048;-77
2023/03/19 03:20:58;;;;;;;18.40;14.95;;;;;;;;;;5066647;28;20052;-76
2023/03/19 03:23:25;;;;;;;17.58;15.68;;;;;;;;;;5067023;28;20376;-77
2023/03/19 03:25:51;;;;;;;17.83;15.57;;;;;;;;;;5073391;28;20119;-76
2023/03/19 03:28:18;;;;;;;18.27;16.35;;;;;;;;;;5073666;28;20083;-77
2023/03/19 03:30:44;;;;;;;18.15;16.25;;;;;;;;;;5071131;28;20044;-78
2023/03/19 03:33:10;;;;;;;19.35;17.15;;;;;;;;;;5072548;28;20475;-78
2023/03/19 03:35:36;;;;;;;19.83;16.52;;;;;;;;;;5073265;28;20475;-77
2023/03/19 03:38:03;;;;;;;18.70;16.70;;;;;;;;;;5073884;28;20051;-77
2023/03/19 03:40:30;;;;;;;18.38;15.98;;;;;;;;;;5073310;28;20052;-76
2023/03/19 03:42:56;;;;;;;17.52;15.18;;;;;;;;;;5073487;28;20079;-77
2023/03/19 03:45:22;;;;;;;16.02;13.35;;;;;;;;;;5073398;28;20438;-77
2023/03/19 03:47:48;;;;;;;16.48;12.90;;;;;;;;;;5070717;28;20048;-77
2023/03/19 03:50:14;;;;;;;16.05;12.30;;;;;;;;;;5073088;28;20048;-77
2023/03/19 03:52:40;;;;;;;14.32;12.27;;;;;;;;;;5071240;28;20040;-77
2023/03/19 03:55:07;;;;;;;15.55;11.40;;;;;;;;;;5073164;28;20047;-77
2023/03/19 03:57:34;;;;;;;12.50;10.30;;;;;;;;;;5073234;28;20419;-77
2023/03/19 04:00:00;;;;;;;13.32;10.23;;;;;;;;;;5073211;28;20078;-77
2023/03/19 04:02:26;;;;;;;11.05;9.35;;;;;;;;;;5072298;28;20048;-77
2023/03/19 04:04:53;;;;;;;13.07;9.35;;;;;;;;;;5071210;28;20087;-77
2023/03/19 04:07:19;;;;;;;11.15;8.48;;;;;;;;;;5072681;28;20056;-77
2023/03/19 04:09:45;;;;;;;9.75;7.47;;;;;;;;;;5072782;28;20040;-77
2023/03/19 04:12:12;;;;;;;12.32;7.93;;;;;;;;;;5069691;28;20132;-76
2023/03/19 04:14:38;;;;;;;10.13;7.43;;;;;;;;;;5060783;28;20041;-77
2023/03/19 04:17:05;;;;;;;11.13;7.60;;;;;;;;;;5053285;28;20399;-77
2023/03/19 04:19:31;;;;;;;10.88;7.43;;;;;;;;;;5066861;28;20044;-77
2023/03/19 04:21:58;;;;;;;10.40;7.45;;;;;;;;;;5058044;28;20040;-76
2023/03/19 04:24:24;;;;;;;8.35;6.88;;;;;;;;;;5066092;28;20079;-77
2023/03/19 04:26:52;;;;;;;10.57;7.18;;;;;;;;;;5055534;28;20554;-76
2023/03/19 04:29:18;;;;;;;8.18;6.80;;;;;;;;;;5058706;28;20044;-77
2023/03/19 04:31:44;;;;;;;7.97;6.18;;;;;;;;;;5067957;28;20516;-76
2023/03/19 04:34:11;;;;;;;8.73;6.43;;;;;;;;;;5064092;28;20045;-77
2023/03/19 04:36:37;;;;;;;9.32;6.80;;;;;;;;;;5052108;28;20049;-77
2023/03/19 04:39:04;;;;;;;10.18;6.40;;;;;;;;;;5062816;28;20513;-77
2023/03/19 04:41:30;;;;;;;9.60;6.22;;;;;;;;;;5086440;28;20045;-76
2023/03/19 04:43:56;;;;;;;10.77;6.75;;;;;;;;;;5071582;28;20040;-76
2023/03/19 04:46:22;;;;;;;9.20;5.80;;;;;;;;;;5049091;28;20051;-77
2023/03/19 04:48:49;;;;;;;9.80;5.97;;;;;;;;;;5055916;28;22305;-76
2023/03/19 04:51:15;;;;;;;8.43;5.85;;;;;;;;;;5058627;28;20097;-76
2023/03/19 04:53:42;;;;;;;8.30;5.68;;;;;;;;;;5064272;28;20055;-76
2023/03/19 04:56:08;;;;;;;9.18;6.13;;;;;;;;;;5063879;28;20403;-77
2023/03/19 04:58:34;;;;;;;8.88;6.15;;;;;;;;;;5056338;28;20126;-77
2023/03/19 05:01:00;;;;;;;10.02;6.00;;;;;;;;;;5055448;28;20506;-77
2023/03/19 05:03:26;;;;;;;9.50;5.72;;;;;;;;;;5068549;28;20083;-77
2023/03/19 05:05:56;;;;;;;9.00;5.90;;;;;;;;;;5063482;28;20045;-77
2023/03/19 05:08:22;;;;;;;8.52;5.88;;;;;;;;;;5096278;28;20048;-77
2023/03/19 05:10:48;;;;;;;8.13;5.90;;;;;;;;;;5087037;28;20048;-77
2023/03/19 05:13:14;;;;;;;8.65;6.03;;;;;;;;;;5073394;28;20052;-77
2023/03/19 05:15:42;;;;;;;8.10;5.82;;;;;;;;;;5075558;28;20106;-77
2023/03/19 05:18:09;;;;;;;9.43;5.82;;;;;;;;;;5075959;28;20055;-76
2023/03/19 05:20:36;;;;;;;8.15;5.78;;;;;;;;;;5074242;28;20052;-77
2023/03/19 05:23:02;;;;;;;8.60;5.65;;;;;;;;;;5076000;28;20037;-77
2023/03/19 05:25:29;;;;;;;7.68;5.38;;;;;;;;;;5075969;28;20441;-77
2023/03/19 05:27:55;;;;;;;8.32;5.80;;;;;;;;;;5067709;28;20080;-77
2023/03/19 05:30:22;;;;;;;7.90;5.82;;;;;;;;;;5074402;28;20044;-76
2023/03/19 05:32:49;;;;;;;8.35;5.70;;;;;;;;;;5075247;28;20049;-77
2023/03/19 05:35:16;;;;;;;9.13;6.00;;;;;;;;;;5074768;28;20066;-77
2023/03/19 05:37:42;;;;;;;8.38;6.00;;;;;;;;;;5073023;28;20049;-77
2023/03/19 05:40:08;;;;;;;9.20;6.32;;;;;;;;;;5074524;28;20055;-77
2023/03/19 05:42:35;;;;;;;7.93;5.90;;;;;;;;;;5074036;28;20082;-78
2023/03/19 05:45:03;;;;;;;8.48;5.93;;;;;;;;;;5070490;28;20087;-77
2023/03/19 05:47:29;;;;;;;8.23;6.18;;;;;;;;;;5054654;28;20061;-77
2023/03/19 05:49:55;;;;;;;8.15;6.47;;;;;;;;;;5054607;28;20187;-77
2023/03/19 05:52:21;;;;;;;9.68;6.90;;;;;;;;;;5061920;28;20356;-78
2023/03/19 05:54:48;;;;;;;9.07;6.80;;;;;;;;;;5074229;28;20078;-77
2023/03/19 05:57:15;;;;;;;9.50;6.90;;;;;;;;;;5074247;28;20049;-77
2023/03/19 05:59:41;;;;;;;9.60;6.82;;;;;;;;;;5060841;28;20457;-76
2023/03/19 06:02:07;;;;;;;9.52;6.40;;;;;;;;;;5056922;28;20044;-76
2023/03/19 06:04:33;;;;;;;8.52;6.95;;;;;;;;;;5073265;28;20098;-77
2023/03/19 06:06:59;;;;;;;12.38;6.82;;;;;;;;;;5071042;28;20118;-77
2023/03/19 06:09:25;;;;;;;8.75;6.82;;;;;;;;;;5062514;28;20095;-77
2023/03/19 06:11:51;;;;;;;10.07;7.00;;;;;;;;;;5072713;28;20411;-77
2023/03/19 06:14:18;;;;;;;9.63;7.35;;;;;;;;;;5066206;28;20160;-76
2023/03/19 06:16:44;;;;;;;10.07;7.32;;;;;;;;;;5078990;28;20128;-77
2023/03/19 06:19:10;;;;;;;9.48;7.50;;;;;;;;;;5086122;28;20051;-77
2023/03/19 06:21:36;;;;;;;11.07;7.43;;;;;;;;;;5036018;28;20059;-76
2023/03/19 06:24:02;;;;;;;12.25;7.30;;;;;;;;;;5062577;28;20098;-77
2023/03/19 06:26:28;;;;;;;12.20;7.57;;;;;;;;;;5073872;28;20049;-77
2023/03/19 06:28:54;;;;;;;12.30;7.47;;;;;;;;;;5073755;28;20055;-77
2023/03/19 06:31:20;;;;;;;10.90;7.70;;;;;;;;;;5072553;28;20135;-77
2023/03/19 06:33:47;;;;;;;11.07;7.40;;;;;;;;;;5073876;28;20064;-77
2023/03/19 06:36:13;;;;;;;11.32;7.78;;;;;;;;;;5072728;28;20059;-77
2023/03/19 06:38:40;;;;;;;10.30;7.47;;;;;;;;;;5066067;28;20148;-76
2023/03/19 06:41:06;;;;;;;10.10;7.90;;;;;;;;;;5053514;28;20132;-77
2023/03/19 06:43:35;;;;;;;12.93;7.60;;;;;;;;;;5085915;28;20041;-77
2023/03/19 06:46:01;;;;;;;9.68;7.30;;;;;;;;;;5053478;28;20427;-77
2023/03/19 06:48:28;;;;;;;10.82;7.72;;;;;;;;;;5053481;28;20049;-77
2023/03/19 06:50:54;;;;;;;9.65;7.32;;;;;;;;;;5085468;28;20087;-77
2023/03/19 06:53:20;;;;;;;8.82;6.75;;;;;;;;;;5058308;28;20048;-77
2023/03/19 06:55:46;;;;;;;11.43;8.35;;;;;;;;;;5063622;28;20044;-77
2023/03/19 06:58:12;;;;;;;9.25;7.10;;;;;;;;;;5059139;28;20048;-76
2023/03/19 07:00:38;;;;;;;10.55;8.18;;;;;;;;;;5061435;28;20479;-78
2023/03/19 07:03:04;;;;;;;9.23;7.75;;;;;;;;;;5065617;28;20087;-78
2023/03/19 07:05:30;;;;;;;11.10;7.97;;;;;;;;;;5074569;28;20048;-77
2023/03/19 07:07:56;;;;;;;9.82;7.50;;;;;;;;;;5071999;28;20052;-77
2023/03/19 07:10:22;;;;;;;11.05;7.90;;;;;;;;;;5070966;28;20519;-77
2023/03/19 07:12:48;;;;;;;10.02;8.55;;;;;;;;;;5072885;28;20055;-78
2023/03/19 07:15:16;;;;;;;10.18;8.30;;;;;;;;;;5072704;28;20127;-78
2023/03/19 07:17:44;;;;;;;10.85;8.50;;;;;;;;;;5070317;28;20058;-77
2023/03/19 07:20:10;;;;;;;10.27;7.93;;;;;;;;;;5068566;28;20060;-77
2023/03/19 07:22:36;;;;;;;11.43;8.70;;;;;;;;;;5063347;28;20048;-77
2023/03/19 07:25:02;;;;;;;10.70;8.70;;;;;;;;;;5064137;28;20036;-77
2023/03/19 07:27:29;;;;;;;11.57;8.27;;;;;;;;;;5055762;28;20059;-78
2023/03/19 07:29:55;;;;;;;11.70;8.98;;;;;;;;;;5052779;28;20048;-78
2023/03/19 07:32:22;;;;;;;11.77;8.25;;;;;;;;;;5052767;28;20063;-78
2023/03/19 07:34:48;;;;;;;11.68;8.40;;;;;;;;;;5099712;28;20056;-78
2023/03/19 07:37:14;;;;;;;10.75;8.65;;;;;;;;;;5061545;28;20060;-77
2023/03/19 07:39:40;;;;;;;12.43;8.68;;;;;;;;;;5052228;28;20103;-78
2023/03/19 07:42:07;;;;;;;13.32;8.80;;;;;;;;;;5052531;28;20091;-78
2023/03/19 07:44:33;;;;;;;12.57;9.27;;;;;;;;;;5055453;28;20052;-78
2023/03/19 07:46:59;;;;;;;11.18;7.80;;;;;;;;;;5052685;28;20049;-78
2023/03/19 07:49:25;;;;;;;12.18;9.75;;;;;;;;;;5055222;28;20052;-77
2023/03/19 07:51:51;;;;;;;12.43;9.10;;;;;;;;;;5056530;28;20045;-77
2023/03/19 07:54:17;;;;;;;13.43;10.13;;;;;;;;;;5056492;28;20040;-77
2023/03/19 07:56:44;;;;;;;12.77;9.75;;;;;;;;;;5063307;28;20048;-77
2023/03/19 07:59:10;;;;;;;14.93;10.43;;;;;;;;;;5076097;28;20115;-78
2023/03/19 08:01:36;;;;;;;11.32;8.32;;;;;;;;;;5064379;28;20075;-78
2023/03/19 08:04:02;;;;;;;13.82;10.45;;;;;;;;;;5055560;28;20123;-78
2023/03/19 08:06:28;;;;;;;13.23;10.23;;;;;;;;;;5058255;28;20071;-78
2023/03/19 08:08:55;;;;;;;13.13;10.82;;;;;;;;;;5062892;28;20053;-77
2023/03/19 08:11:21;;;;;;;12.43;9.68;;;;;;;;;;5074630;28;20057;-76
2023/03/19 08:13:47;;;;;;;11.27;9.43;;;;;;;;;;5073117;28;20044;-77
2023/03/19 08:16:13;;;;;;;11.50;9.40;;;;;;;;;;5074973;28;20052;-77
2023/03/19 08:18:40;;;;;;;13.20;10.82;;;;;;;;;;5074283;28;20036;-76
2023/03/19 08:21:06;;;;;;;13.88;10.98;;;;;;;;;;5073888;28;20123;-77
2023/03/19 08:23:32;;;;;;;15.18;12.35;;;;;;;;;;5075474;28;20048;-78
2023/03/19 08:25:58;;;;;;;16.60;13.02;;;;;;;;;;5065741;28;20627;-76
2023/03/19 08:28:24;;;;;;;16.88;13.65;;;;;;;;;;5064679;28;20059;-77
2023/03/19 08:30:50;;;;;;;17.13;13.07;;;;;;;;;;5053835;28;20080;-77
2023/03/19 08:33:17;;;;;;;13.27;11.88;;;;;;;;;;5054932;28;20067;-77
2023/03/19 08:35:43;;;;;;;14.32;12.25;;;;;;;;;;5074092;28;20045;-77
2023/03/19 08:38:09;;;;;;;13.93;11.55;;;;;;;;;;5054004;28;20106;-77
2023/03/19 08:40:36;;;;;;;14.05;11.77;;;;;;;;;;5075201;28;20049;-77
2023/03/19 08:43:02;;;;;;;15.13;12.93;;;;;;;;;;5076953;28;20154;-77
2023/03/19 08:45:29;;;;;;;16.40;12.45;;;;;;;;;;5082413;28;20051;-77
2023/03/19 08:47:56;;;;;;;15.98;13.32;;;;;;;;;;5095778;28;20048;-77
2023/03/19 08:50:23;;;;;;;15.40;13.10;;;;;;;;;;5079064;28;20039;-77
2023/03/19 08:52:49;;;;;;;15.13;12.68;;;;;;;;;;5071880;28;20052;-77
2023/03/19 08:55:16;;;;;;;14.90;12.98;;;;;;;;;;5070330;28;20049;-77
2023/03/19 08:57:42;;;;;;;14.43;11.82;;;;;;;;;;5056805;28;20384;-77
2023/03/19 09:00:09;;;;;;;16.35;13.35;;;;;;;;;;5074256;28;20042;-77
2023/03/19 09:02:35;;;;;;;15.57;13.02;;;;;;;;;;5086182;28;20076;-78
2023/03/19 09:05:01;;;;;;;15.27;12.57;;;;;;;;;;5071174;28;20040;-77
2023/03/19 09:07:27;;;;;;;15.82;12.05;;;;;;;;;;5070827;28;20453;-77
2023/03/19 09:09:54;;;;;;;15.45;13.80;;;;;;;;;;5060265;28;20387;-77
2023/03/19 09:12:23;;;;;;;15.50;12.65;;;;;;;;;;5061396;28;20044;-77
2023/03/19 09:14:49;;;;;;;15.30;13.05;;;;;;;;;;5067563;28;20136;-77
2023/03/19 09:17:17;;;;;;;14.77;13.18;;;;;;;;;;5052560;28;20052;-76
2023/03/19 09:19:43;;;;;;;13.25;11.85;;;;;;;;;;5072030;28;20071;-77
2023/03/19 09:22:09;;;;;;;13.63;11.90;;;;;;;;;;5071093;28;20040;-77
2023/03/19 09:24:35;;;;;;;15.63;13.07;;;;;;;;;;5056855;28;20084;-77
2023/03/19 09:27:01;;;;;;;16.38;13.55;;;;;;;;;;5070092;28;20055;-77
2023/03/19 09:29:27;;;;;;;14.77;12.88;;;;;;;;;;5075116;28;20044;-77
2023/03/19 09:31:54;;;;;;;14.77;12.27;;;;;;;;;;5063589;28;20048;-77
2023/03/19 09:34:20;;;;;;;16.10;13.55;;;;;;;;;;5070219;28;20045;-77
2023/03/19 09:36:46;;;;;;;14.70;13.02;;;;;;;;;;5075187;28;20127;-77
2023/03/19 09:39:12;;;;;;;14.35;12.35;;;;;;;;;;5069496;28;20056;-77
2023/03/19 09:41:58;;;;;;;14.80;12.73;;;;;;;;;;5073810;28;20048;-77
2023/03/19 09:44:32;;;;;;;14.80;13.15;;;;;;;;;;5059921;28;20095;-77
2023/03/19 09:47:02;;;;;;;16.02;13.65;;;;;;;;;;5075927;28;20049;-76
2023/03/19 09:49:31;;;;;;;16.90;13.60;;;;;;;;;;5075217;28;20044;-77
2023/03/19 09:52:08;;;;;;;15.73;12.10;;;;;;;;;;5056031;28;20335;-78
2023/03/19 09:54:39;;;;;;;16.13;12.45;;;;;;;;;;5055280;28;20498;-76
2023/03/19 09:57:05;;;;;;;13.73;12.20;;;;;;;;;;5059942;28;20040;-77
2023/03/19 09:59:31;;;;;;;13.80;11.48;;;;;;;;;;5075484;28;20041;-77
2023/03/19 10:02:04;;;;;;;14.00;11.45;;;;;;;;;;5075440;28;20044;-77
2023/03/19 10:04:41;;;;;;;12.18;10.32;;;;;;;;;;5072270;28;20053;-76
2023/03/19 10:07:22;;;;;;;11.07;7.97;;;;;;;;;;5074961;28;20119;-76
2023/03/19 10:10:00;;;;;;;12.05;7.40;;;;;;;;;;5074316;28;20072;-76
2023/03/19 10:12:29;;;;;;;9.85;6.65;;;;;;;;;;5084507;28;20090;-77
2023/03/19 10:15:02;;;;;;;8.48;6.85;;;;;;;;;;5070812;28;20105;-77
2023/03/19 10:17:37;;;;;;;10.13;6.90;;;;;;;;;;5072122;28;20493;-77
2023/03/19 10:20:09;;;;;;;10.48;7.40;;;;;;;;;;5065620;28;20036;-78
2023/03/19 10:22:41;;;;;;;9.93;7.50;;;;;;;;;;5072211;28;20048;-78
2023/03/19 10:25:11;;;;;;;10.65;7.22;;;;;;;;;;5076341;28;20493;-78
2023/03/19 10:27:37;;;;;;;9.50;7.72;;;;;;;;;;5078899;28;20535;-78
2023/03/19 10:30:12;;;;;;;9.25;7.60;;;;;;;;;;5073296;28;20037;-78
2023/03/19 10:32:42;;;;;;;8.65;7.25;;;;;;;;;;5082410;28;20055;-77
2023/03/19 10:35:16;;;;;;;10.05;7.40;;;;;;;;;;5061598;28;20048;-77
2023/03/19 10:37:42;;;;;;;11.10;8.60;;;;;;;;;;5062125;28;20106;-77
2023/03/19 10:40:17;;;;;;;10.80;7.63;;;;;;;;;;5055664;28;20077;-77
2023/03/19 10:42:43;;;;;;;9.10;7.22;;;;;;;;;;5066978;28;20148;-77
2023/03/19 10:45:18;;;;;;;9.85;7.30;;;;;;;;;;5068829;28;20040;-77
2023/03/19 10:47:44;;;;;;;9.43;7.90;;;;;;;;;;5053773;28;20049;-77
2023/03/19 10:50:24;;;;;;;10.32;8.18;;;;;;;;;;5071651;28;20098;-77
2023/03/19 10:52:51;;;;;;;10.93;8.35;;;;;;;;;;5069636;28;20503;-77
2023/03/19 10:55:18;;;;;;;10.43;7.65;;;;;;;;;;5053900;28;20399;-77
2023/03/19 10:57:45;;;;;;;10.40;8.07;;;;;;;;;;5052284;28;20045;-77
2023/03/19 11:00:16;;;;;;;9.93;8.15;;;;;;;;;;5053745;28;20135;-77
2023/03/19 11:02:53;;;;;;;10.93;8.38;;;;;;;;;;5053546;28;20060;-77
2023/03/19 11:05:19;;;;;;;8.65;7.20;;;;;;;;;;5064385;28;20043;-77
2023/03/19 11:07:48;;;;;;;9.80;7.43;;;;;;;;;;5073749;28;20116;-78
2023/03/19 11:10:15;;;;;;;9.18;7.13;;;;;;;;;;5066381;28;20102;-78
2023/03/19 11:12:47;;;;;;;11.15;7.28;;;;;;;;;;5073376;28;20087;-78
2023/03/19 11:15:20;;;;;;;9.73;7.45;;;;;;;;;;5073231;28;20052;-78
2023/03/19 11:17:48;;;;;;;9.32;7.00;;;;;;;;;;5064826;28;20040;-77
2023/03/19 11:20:31;;;;;;;9.07;7.05;;;;;;;;;;5071822;28;20048;-77
2023/03/19 11:23:01;;;;;;;9.80;6.82;;;;;;;;;;5072016;28;20102;-78
2023/03/19 11:25:35;;;;;;;9.02;6.32;;;;;;;;;;5073682;28;20052;-78
2023/03/19 11:28:08;;;;;;;9.07;6.95;;;;;;;;;;5064654;28;20033;-77
2023/03/19 11:30:37;;;;;;;8.70;7.05;;;;;;;;;;5065947;28;20045;-77
2023/03/19 11:33:12;;;;;;;10.73;7.47;;;;;;;;;;5072607;28;20080;-77
2023/03/19 11:35:44;;;;;;;9.65;7.43;;;;;;;;;;5056658;28;20048;-77
2023/03/19 11:38:17;;;;;;;9.73;7.70;;;;;;;;;;5072316;28;20053;-77
2023/03/19 11:40:45;;;;;;;9.25;6.85;;;;;;;;;;5072844;28;20052;-77
2023/03/19 11:43:20;;;;;;;8.52;7.25;;;;;;;;;;5071870;28;20071;-77
2023/03/19 11:46:05;;;;;;;9.20;6.97;;;;;;;;;;5078317;28;20047;-77
2023/03/19 11:48:37;;;;;;;8.43;6.32;;;;;;;;;;5092856;28;20502;-78
2023/03/19 11:51:27;;;;;;;8.65;6.90;;;;;;;;;;5050192;28;20091;-78
2023/03/19 11:53:53;;;;;;;9.25;6.95;;;;;;;;;;5052503;28;20053;-78
2023/03/19 11:56:40;;;;;;;9.80;7.22;;;;;;;;;;5052136;28;20049;-77
2023/03/19 11:59:22;;;;;;;10.05;7.07;;;;;;;;;;5057046;28;20052;-78
2023/03/19 12:01:54;;;;;;;10.48;7.78;;;;;;;;;;5052427;28;20506;-78
2023/03/19 12:04:24;;;;;;;9.45;7.65;;;;;;;;;;5055461;28;20036;-77
2023/03/19 12:06:59;;;;;;;10.27;7.80;;;;;;;;;;5051242;28;20048;-77
2023/03/19 12:09:33;;;;;;;10.32;7.90;;;;;;;;;;5059853;28;20072;-77
2023/03/19 12:12:10;;;;;;;10.07;7.75;;;;;;;;;;5061350;28;20052;-77
2023/03/19 12:14:52;;;;;;;9.10;7.30;;;;;;;;;;5056160;28;20059;-77
2023/03/19 12:17:25;;;;;;;11.30;7.88;;;;;;;;;;5055692;28;20041;-77
2023/03/19 12:20:04;;;;;;;9.23;7.95;;;;;;;;;;5059279;28;20044;-75
2023/03/19 12:22:49;;;;;;;10.70;8.25;;;;;;;;;;5058457;28;20040;-77
2023/03/19 12:25:26;;;;;;;9.50;7.35;;;;;;;;;;5065805;28;20051;-77
2023/03/19 12:28:01;;;;;;;10.60;7.38;;;;;;;;;;5058098;28;20045;-77
2023/03/19 12:30:46;;;;;;;10.73;7.80;;;;;;;;;;5051892;28;20124;-77
2023/03/19 12:33:15;;;;;;;9.88;7.57;;;;;;;;;;5060347;28;20098;-77
2023/03/19 12:35:43;;;;;;;10.45;7.53;;;;;;;;;;5061591;28;20406;-77
2023/03/19 12:38:22;;;;;;;9.65;7.45;;;;;;;;;;5071665;28;20059;-77
2023/03/19 12:40:52;;;;;;;10.07;7.78;;;;;;;;;;5071992;28;20072;-77
2023/03/19 12:43:22;;;;;;;9.75;7.57;;;;;;;;;;5071623;28;20544;-77
2023/03/19 12:45:50;;;;;;;9.90;7.85;;;;;;;;;;5070345;28;20051;-77
2023/03/19 12:48:28;;;;;;;10.20;7.95;;;;;;;;;;5055648;28;20495;-77
2023/03/19 12:50:56;;;;;;;9.68;7.68;;;;;;;;;;5068157;28;20048;-77
2023/03/19 12:53:32;;;;;;;12.57;8.88;;;;;;;;;;5059659;28;20059;-77
2023/03/19 12:56:01;;;;;;;10.02;8.70;;;;;;;;;;5051544;28;20125;-77
2023/03/19 12:58:48;;;;;;;10.07;8.88;;;;;;;;;;5052054;28;20403;-77
2023/03/19 13:01:18;;;;;;;10.65;9.25;;;;;;;;;;5062323;28;20122;-77
2023/03/19 13:04:03;;;;;;;11.23;9.10;;;;;;;;;;5057593;28;20041;-77
2023/03/19 13:06:36;;;;;;;12.32;8.88;;;;;;;;;;5062924;28;20080;-77
2023/03/19 13:09:25;;;;;;;11.25;9.23;;;;;;;;;;5055252;28;20442;-77
2023/03/19 13:11:54;;;;;;;11.00;8.95;;;;;;;;;;5058982;28;20060;-77
2023/03/19 13:14:32;;;;;;;12.13;9.13;;;;;;;;;;5074022;28;20343;-77
2023/03/19 13:17:14;;;;;;;10.05;8.35;;;;;;;;;;5076649;28;20040;-77
2023/03/19 13:19:45;;;;;;;11.20;9.38;;;;;;;;;;5070679;28;20044;-77
2023/03/19 13:22:11;;;;;;;;;;;;;;;;;;5075876;28;20064;-77
2023/03/19 13:24:38;;;;;;;10.57;8.98;;;;;;;;;;5060781;28;19967;-77
2023/03/19 13:27:06;;;;;;;9.95;8.07;;;;;;;;;;5059743;28;20052;-77
2023/03/19 13:29:35;;;;;;;11.05;7.63;;;;;;;;;;5069071;28;20047;-77
2023/03/19 13:32:06;;;;;;;9.10;7.30;;;;;;;;;;5074809;28;20499;-77
2023/03/19 13:34:33;;;;;;;9.95;7.65;;;;;;;;;;5056055;28;20032;-77
2023/03/19 13:36:59;;;;;;;9.95;8.00;;;;;;;;;;5055256;28;20045;-78
2023/03/19 13:39:28;;;;;;;10.80;8.00;;;;;;;;;;5064782;28;20402;-77
2023/03/19 13:42:21;;;;;;;9.95;7.40;;;;;;;;;;5058459;28;20128;-77
2023/03/19 13:44:49;;;;;;;10.25;7.57;;;;;;;;;;5052559;28;20067;-78
2023/03/19 13:47:35;;;;;;;10.02;6.85;;;;;;;;;;5071244;28;20128;-78
2023/03/19 13:50:17;;;;;;;9.55;7.05;;;;;;;;;;5066736;28;20037;-77
2023/03/19 13:52:43;;;;;;;10.35;7.07;;;;;;;;;;5055752;28;20132;-77
2023/03/19 13:55:25;;;;;;;10.70;7.28;;;;;;;;;;5076910;28;20101;-77
2023/03/19 13:58:00;;;;;;;;;;;;;;;;;;5077148;28;20139;-78
2023/03/19 14:00:41;;;;;;;10.45;6.97;;;;;;;;;;5072192;28;19927;-78
2023/03/19 14:03:21;;;;;;;10.25;7.70;;;;;;;;;;5084750;28;20048;-78
2023/03/19 14:05:49;;;;;;;12.30;8.07;;;;;;;;;;5055648;28;20044;-77
2023/03/19 14:08:19;;;;;;;11.23;8.98;;;;;;;;;;5055813;28;20095;-78
2023/03/19 14:11:04;;;;;;;9.88;7.85;;;;;;;;;;5053926;28;20052;-77
2023/03/19 14:13:33;;;;;;;12.65;8.90;;;;;;;;;;5070274;28;20121;-77
2023/03/19 14:16:07;;;;;;;13.20;9.93;;;;;;;;;;5073907;28;20048;-77
2023/03/19 14:18:35;;;;;;;11.60;9.50;;;;;;;;;;5074304;28;20089;-77
2023/03/19 14:21:05;;;;;;;11.40;10.05;;;;;;;;;;5074929;28;20048;-77
2023/03/19 14:23:36;;;;;;;14.98;11.00;;;;;;;;;;5074134;28;20115;-78
2023/03/19 14:26:06;;;;;;;13.68;11.15;;;;;;;;;;5057009;28;20060;-77
2023/03/19 14:28:45;;;;;;;15.20;10.63;;;;;;;;;;5053495;28;20129;-78
2023/03/19 14:31:26;;;;;;;13.73;10.70;;;;;;;;;;5066746;28;20040;-78
2023/03/19 14:33:59;;;;;;;15.20;11.10;;;;;;;;;;5096964;28;20041;-78
2023/03/19 14:36:26;;;;;;;14.60;11.75;;;;;;;;;;5069475;28;20051;-77
2023/03/19 14:38:55;;;;;;;14.40;11.05;;;;;;;;;;5070018;28;20076;-76